Time;durP1;ratioP1;P1;durP2;ratioP2;P2;SDS_P1;SDS_P2;PMS_P1;PMS_P2;Temp;Humidity;BMP_temperature;BMP_pressure;BME280_temperature;BME280_humidity;BME280_pressure;Samples;Min_cycle;Max_cycle;Signal;HPM_P1;HPM_P2
2021/08/08 00:00:18;;;;;;;0.05;0.05;;;17.80;91.30;;;;;;5022158;28;20037;-87
2021/08/08 00:02:44;;;;;;;0.08;0.08;;;17.70;91.40;;;;;;5024789;28;20042;-87
2021/08/08 00:05:11;;;;;;;0.00;0.00;;;17.70;91.40;;;;;;5024038;28;20056;-87
2021/08/08 00:07:37;;;;;;;0.10;0.10;;;17.80;91.40;;;;;;5043495;28;20033;-87
2021/08/08 00:10:08;;;;;;;0.10;0.10;;;17.80;91.60;;;;;;5027436;28;20092;-87
2021/08/08 00:12:34;;;;;;;0.00;0.00;;;17.70;91.60;;;;;;5036702;28;20037;-88
2021/08/08 00:15:00;;;;;;;0.00;0.00;;;17.70;91.70;;;;;;5044795;28;20089;-87
2021/08/08 00:17:26;;;;;;;0.10;0.10;;;17.70;91.80;;;;;;5042438;28;20474;-87
2021/08/08 00:19:51;;;;;;;0.10;0.10;;;17.60;91.90;;;;;;5032315;28;20042;-87
2021/08/08 00:22:17;;;;;;;0.00;0.00;;;17.70;92.10;;;;;;5032886;28;20490;-87
2021/08/08 00:24:43;;;;;;;0.10;0.10;;;17.60;92.10;;;;;;5025541;28;20086;-88
2021/08/08 00:27:09;;;;;;;0.00;0.00;;;17.60;92.20;;;;;;5030440;28;20568;-87
2021/08/08 00:29:34;;;;;;;0.05;0.05;;;17.60;92.30;;;;;;5021132;28;20033;-87
2021/08/08 00:32:00;;;;;;;0.10;0.10;;;17.50;92.40;;;;;;5021177;28;20042;-87
2021/08/08 00:34:26;;;;;;;0.10;0.10;;;17.60;92.40;;;;;;5020751;28;20034;-87
2021/08/08 00:36:52;;;;;;;0.10;0.10;;;17.50;92.50;;;;;;5038799;28;20032;-87
2021/08/08 00:39:20;;;;;;;0.08;0.08;;;17.50;92.50;;;;;;5020780;28;20395;-87
2021/08/08 00:41:46;;;;;;;0.10;0.10;;;17.50;92.60;;;;;;5020332;28;20121;-87
2021/08/08 00:44:12;;;;;;;0.00;0.00;;;17.50;92.80;;;;;;5020841;28;20129;-87
2021/08/08 00:46:38;;;;;;;0.10;0.10;;;17.50;92.80;;;;;;5020926;28;20049;-87
2021/08/08 00:49:03;;;;;;;0.00;0.00;;;17.40;92.90;;;;;;5021224;28;20558;-87
2021/08/08 00:51:32;;;;;;;0.10;0.10;;;17.50;93.10;;;;;;5022579;28;20359;-87
2021/08/08 00:53:58;;;;;;;0.00;0.00;;;17.40;93.20;;;;;;5025842;28;20403;-87
2021/08/08 00:56:24;;;;;;;0.10;0.10;;;17.50;93.20;;;;;;5026669;28;20051;-87
2021/08/08 00:58:50;;;;;;;0.03;0.03;;;17.50;93.30;;;;;;5022141;28;20033;-87
2021/08/08 01:01:18;;;;;;;0.00;0.00;;;17.40;93.30;;;;;;5022606;28;20036;-87
2021/08/08 01:03:44;;;;;;;0.00;0.00;;;17.40;93.40;;;;;;5031681;28;20041;-87
2021/08/08 01:06:26;;;;;;;0.00;0.00;;;17.40;93.50;;;;;;5031132;28;20049;-87
2021/08/08 01:08:55;;;;;;;0.00;0.00;;;17.40;93.60;;;;;;5027178;28;20026;-87
2021/08/08 01:11:23;;;;;;;0.10;0.10;;;17.40;93.70;;;;;;5035571;28;20037;-87
2021/08/08 01:13:51;;;;;;;0.08;0.08;;;17.30;93.70;;;;;;5038257;28;20034;-87
2021/08/08 01:16:19;;;;;;;0.08;0.08;;;17.30;93.80;;;;;;5042335;28;20038;-87
2021/08/08 01:18:46;;;;;;;0.10;0.10;;;17.30;94.00;;;;;;5020657;28;20486;-87
2021/08/08 01:21:12;;;;;;;0.10;0.10;;;17.30;94.00;;;;;;5019660;28;20088;-87
2021/08/08 01:23:39;;;;;;;0.10;0.10;;;17.40;94.10;;;;;;5019718;28;20033;-87
2021/08/08 01:26:05;;;;;;;0.03;0.03;;;17.30;94.50;;;;;;5019952;28;20057;-87
2021/08/08 01:28:32;;;;;;;0.10;0.10;;;17.30;94.40;;;;;;5019331;28;20121;-87
2021/08/08 01:30:57;;;;;;;0.00;0.00;;;17.40;94.70;;;;;;5023604;28;20041;-87
2021/08/08 01:33:23;;;;;;;0.10;0.10;;;17.30;94.80;;;;;;5031069;28;20033;-87
2021/08/08 01:35:49;;;;;;;0.10;0.10;;;17.30;94.90;;;;;;5020048;28;20041;-87
2021/08/08 01:38:15;;;;;;;0.10;0.10;;;17.30;95.00;;;;;;5020032;28;20030;-87
2021/08/08 01:40:50;;;;;;;0.05;0.05;;;17.30;95.00;;;;;;5021629;28;20068;-87
2021/08/08 01:43:24;;;;;;;0.10;0.10;;;17.30;95.10;;;;;;5022508;28;20132;-87
2021/08/08 01:45:51;;;;;;;0.10;0.10;;;17.40;95.30;;;;;;5037818;28;20372;-87
2021/08/08 01:48:20;;;;;;;0.00;0.00;;;17.30;95.30;;;;;;5020891;28;20499;-86
2021/08/08 01:50:46;;;;;;;0.10;0.10;;;17.30;95.40;;;;;;5027106;28;20041;-85
2021/08/08 01:53:12;;;;;;;0.00;0.00;;;17.30;95.50;;;;;;5037342;28;20034;-87
2021/08/08 01:55:38;;;;;;;0.00;0.00;;;17.30;95.70;;;;;;5020191;28;20049;-86
2021/08/08 01:58:05;;;;;;;0.10;0.10;;;17.30;95.90;;;;;;5019059;28;20105;-87
2021/08/08 02:00:31;;;;;;;0.10;0.10;;;17.30;95.90;;;;;;5025485;28;20501;-86
2021/08/08 02:02:58;;;;;;;0.00;0.00;;;17.30;96.10;;;;;;5034357;28;20053;-87
2021/08/08 02:05:26;;;;;;;0.10;0.10;;;17.30;96.10;;;;;;5038094;28;20054;-87
2021/08/08 02:07:52;;;;;;;0.00;0.00;;;17.30;96.20;;;;;;5021823;28;20029;-86
2021/08/08 02:10:18;;;;;;;0.10;0.10;;;17.30;96.30;;;;;;5046977;28;20053;-87
2021/08/08 02:12:44;;;;;;;0.10;0.10;;;17.30;96.30;;;;;;5021623;28;20080;-87
2021/08/08 02:15:11;;;;;;;0.00;0.00;;;17.30;96.40;;;;;;5028040;28;20125;-87
2021/08/08 02:17:37;;;;;;;0.10;0.10;;;17.30;96.40;;;;;;5021343;28;20034;-86
2021/08/08 02:20:05;;;;;;;0.08;0.08;;;17.30;96.40;;;;;;5021932;28;20499;-87
2021/08/08 02:22:31;;;;;;;0.10;0.10;;;17.30;96.60;;;;;;5031847;28;20025;-87
2021/08/08 02:24:56;;;;;;;0.10;0.10;;;17.30;96.60;;;;;;5053784;28;20073;-86
2021/08/08 02:27:22;;;;;;;0.10;0.10;;;17.30;96.60;;;;;;5022412;28;20418;-87
2021/08/08 02:29:48;;;;;;;0.08;0.08;;;17.30;96.70;;;;;;5018804;28;20143;-87
2021/08/08 02:32:15;;;;;;;0.00;0.00;;;17.20;96.70;;;;;;5020679;28;20061;-87
2021/08/08 02:34:41;;;;;;;0.10;0.10;;;17.20;96.70;;;;;;5023343;28;20034;-87
2021/08/08 02:37:08;;;;;;;0.10;0.10;;;17.20;96.80;;;;;;5021100;28;20037;-87
2021/08/08 02:39:34;;;;;;;0.10;0.10;;;17.10;96.90;;;;;;5025895;28;20099;-88
2021/08/08 02:41:59;;;;;;;0.00;0.00;;;17.10;97.00;;;;;;5019932;28;20045;-89
2021/08/08 02:44:25;;;;;;;0.00;0.00;;;17.10;97.20;;;;;;5018975;28;20087;-88
2021/08/08 02:46:51;;;;;;;0.10;0.10;;;17.10;97.40;;;;;;5019369;28;20043;-89
2021/08/08 02:49:17;;;;;;;0.10;0.10;;;17.10;97.50;;;;;;5020359;28;20498;-89
2021/08/08 02:51:42;;;;;;;0.10;0.10;;;17.10;97.60;;;;;;5019035;28;20046;-89
2021/08/08 02:54:10;;;;;;;0.00;0.00;;;17.00;97.60;;;;;;5018984;28;20072;-89
2021/08/08 02:56:35;;;;;;;0.00;0.00;;;17.00;97.70;;;;;;5018305;28;20063;-89
2021/08/08 02:59:02;;;;;;;0.00;0.00;;;17.00;97.70;;;;;;5018907;28;20072;-89
2021/08/08 03:01:28;;;;;;;0.00;0.00;;;17.00;97.80;;;;;;5018810;28;20486;-89
2021/08/08 03:03:54;;;;;;;0.10;0.10;;;17.00;97.90;;;;;;5026642;28;20038;-88
2021/08/08 03:06:19;;;;;;;0.00;0.00;;;17.00;98.00;;;;;;5032813;28;20037;-89
2021/08/08 03:08:45;;;;;;;0.10;0.10;;;17.10;97.90;;;;;;5029557;28;20495;-88
2021/08/08 03:11:11;;;;;;;0.10;0.10;;;17.10;98.20;;;;;;5023328;28;20414;-89
2021/08/08 03:13:38;;;;;;;0.03;0.03;;;17.10;98.00;;;;;;5021961;28;20215;-89
2021/08/08 03:16:03;;;;;;;0.00;0.00;;;17.10;98.10;;;;;;5020257;28;20029;-89
2021/08/08 03:18:29;;;;;;;0.10;0.10;;;17.10;98.10;;;;;;5019535;28;20034;-89
2021/08/08 03:20:55;;;;;;;0.00;0.00;;;17.10;98.20;;;;;;5032182;28;20029;-89
2021/08/08 03:23:21;;;;;;;0.00;0.00;;;17.20;98.30;;;;;;5027857;28;20390;-88
2021/08/08 03:25:46;;;;;;;0.00;0.00;;;17.20;98.20;;;;;;5020710;28;20049;-89
2021/08/08 03:28:12;;;;;;;0.00;0.00;;;17.30;98.10;;;;;;5021136;28;20041;-89
2021/08/08 03:30:39;;;;;;;0.08;0.08;;;17.30;98.00;;;;;;5018788;28;20045;-88
2021/08/08 03:33:05;;;;;;;0.10;0.10;;;17.40;98.10;;;;;;5037022;28;20041;-88
2021/08/08 03:35:30;;;;;;;0.00;0.00;;;17.40;98.00;;;;;;5018398;28;20379;-88
2021/08/08 03:37:56;;;;;;;0.10;0.10;;;17.40;97.90;;;;;;5019049;28;20084;-88
2021/08/08 03:40:22;;;;;;;0.10;0.10;;;17.50;97.80;;;;;;5018508;28;20033;-88
2021/08/08 03:42:48;;;;;;;0.10;0.10;;;17.50;97.70;;;;;;5017383;28;20044;-88
2021/08/08 03:45:14;;;;;;;0.00;0.00;;;17.60;97.70;;;;;;5021711;28;20042;-88
2021/08/08 03:47:40;;;;;;;0.10;0.10;;;17.60;97.60;;;;;;5020350;28;20034;-88
2021/08/08 03:50:07;;;;;;;0.00;0.00;;;17.70;97.40;;;;;;5036944;28;20491;-88
2021/08/08 03:52:32;;;;;;;0.00;0.00;;;17.80;97.20;;;;;;5019558;28;20068;-88
2021/08/08 03:54:59;;;;;;;0.10;0.10;;;17.90;97.00;;;;;;5024951;28;20466;-88
2021/08/08 03:57:24;;;;;;;0.00;0.00;;;18.00;96.90;;;;;;5025939;28;20038;-88
2021/08/08 03:59:50;;;;;;;0.00;0.00;;;18.00;96.30;;;;;;5040145;28;20539;-88
2021/08/08 04:02:23;;;;;;;0.10;0.10;;;18.10;96.00;;;;;;5019187;28;20535;-88
2021/08/08 04:04:49;;;;;;;0.10;0.10;;;18.20;95.70;;;;;;5022505;28;20113;-89
2021/08/08 04:07:15;;;;;;;0.00;0.00;;;18.30;95.30;;;;;;5019539;28;20112;-88
2021/08/08 04:09:41;;;;;;;0.00;0.00;;;18.40;95.00;;;;;;5018692;28;20030;-88
2021/08/08 04:12:08;;;;;;;0.08;0.08;;;18.50;94.70;;;;;;5018907;28;20048;-88
2021/08/08 04:14:37;;;;;;;0.10;0.10;;;18.60;94.30;;;;;;5017732;28;20056;-88
2021/08/08 04:17:04;;;;;;;0.00;0.00;;;18.70;93.90;;;;;;5023618;28;20045;-88
2021/08/08 04:19:31;;;;;;;0.10;0.10;;;18.80;93.60;;;;;;5021607;28;20374;-88
2021/08/08 04:21:57;;;;;;;0.10;0.10;;;18.80;93.40;;;;;;5020483;28;20037;-88
2021/08/08 04:24:22;;;;;;;0.00;0.00;;;18.90;93.20;;;;;;5022295;28;20095;-88
2021/08/08 04:26:48;;;;;;;0.10;0.10;;;19.00;92.90;;;;;;5031368;28;20045;-88
2021/08/08 04:29:14;;;;;;;0.00;0.00;;;19.10;92.50;;;;;;5019973;28;20083;-88
2021/08/08 04:31:40;;;;;;;0.00;0.00;;;19.20;92.00;;;;;;5019100;28;20044;-89
2021/08/08 04:34:05;;;;;;;0.00;0.00;;;19.30;91.90;;;;;;5023329;28;20497;-89
2021/08/08 04:36:31;;;;;;;0.05;0.05;;;19.40;91.60;;;;;;5022356;28;20372;-87
2021/08/08 04:38:57;;;;;;;0.00;0.00;;;19.50;91.20;;;;;;5032225;28;20033;-87
2021/08/08 04:41:23;;;;;;;0.00;0.00;;;19.60;90.70;;;;;;5040743;28;20038;-87
2021/08/08 04:43:49;;;;;;;0.00;0.00;;;19.80;90.20;;;;;;5042510;28;20014;-87
2021/08/08 04:46:15;;;;;;;0.00;0.00;;;19.90;90.00;;;;;;5043640;28;20057;-87
2021/08/08 04:48:41;;;;;;;0.05;0.05;;;20.00;89.50;;;;;;5061187;28;20090;-87
2021/08/08 04:51:07;;;;;;;0.00;0.00;;;20.20;89.50;;;;;;5044588;28;20044;-89
2021/08/08 04:53:32;;;;;;;0.03;0.03;;;20.40;90.00;;;;;;5044355;28;20021;-89
2021/08/08 04:55:58;;;;;;;0.00;0.00;;;20.70;90.40;;;;;;5043740;28;20072;-86
2021/08/08 04:58:24;;;;;;;0.00;0.00;;;21.00;90.20;;;;;;5035332;28;20506;-87
2021/08/08 05:00:50;;;;;;;0.10;0.10;;;21.40;89.60;;;;;;5032773;28;20049;-89
2021/08/08 05:03:16;;;;;;;0.00;0.00;;;21.80;87.60;;;;;;5035114;28;20034;-89
2021/08/08 05:05:41;;;;;;;0.00;0.00;;;22.20;86.00;;;;;;5021851;28;20092;-89
2021/08/08 05:08:07;;;;;;;0.00;0.00;;;22.60;84.30;;;;;;5039109;28;20532;-88
2021/08/08 05:10:33;;;;;;;0.00;0.00;;;22.90;83.20;;;;;;5023397;28;20033;-88
2021/08/08 05:12:58;;;;;;;0.00;0.00;;;23.20;81.20;;;;;;5021543;28;20033;-88
2021/08/08 05:15:25;;;;;;;0.00;0.00;;;23.60;79.60;;;;;;5023541;28;20038;-89
2021/08/08 05:17:50;;;;;;;0.10;0.10;;;23.80;78.50;;;;;;5025263;28;20486;-88
2021/08/08 05:20:17;;;;;;;0.00;0.00;;;24.10;77.30;;;;;;5034748;28;20064;-88
2021/08/08 05:22:43;;;;;;;0.00;0.00;;;24.50;75.80;;;;;;5024416;28;20064;-89
2021/08/08 05:25:10;;;;;;;0.00;0.00;;;24.70;74.60;;;;;;5021243;28;20050;-89
2021/08/08 05:27:37;;;;;;;0.00;0.00;;;24.90;73.20;;;;;;5020748;28;20060;-89
2021/08/08 05:30:05;;;;;;;0.00;0.00;;;25.10;72.60;;;;;;5019684;28;20406;-88
2021/08/08 05:32:31;;;;;;;0.00;0.00;;;25.30;72.10;;;;;;5020732;28;20482;-88
2021/08/08 05:34:57;;;;;;;0.00;0.00;;;25.60;71.20;;;;;;5019521;28;20038;-89
2021/08/08 05:37:23;;;;;;;0.00;0.00;;;25.80;70.60;;;;;;5021356;28;20030;-89
2021/08/08 05:39:49;;;;;;;0.00;0.00;;;26.10;69.60;;;;;;5022398;28;20037;-89
2021/08/08 05:42:21;;;;;;;0.00;0.00;;;26.30;69.70;;;;;;5039896;28;20034;-89
2021/08/08 05:44:47;;;;;;;0.00;0.00;;;26.70;68.20;;;;;;5021256;28;20111;-89
2021/08/08 05:47:13;;;;;;;0.00;0.00;;;27.00;67.10;;;;;;5023906;28;20033;-89
2021/08/08 05:49:39;;;;;;;0.00;0.00;;;27.20;67.00;;;;;;5021664;28;20084;-89
2021/08/08 05:52:06;;;;;;;0.00;0.00;;;27.60;66.40;;;;;;5020716;28;20029;-89
2021/08/08 05:54:32;;;;;;;0.00;0.00;;;28.00;65.00;;;;;;5020563;28;20042;-89
2021/08/08 05:56:59;;;;;;;0.00;0.00;;;28.20;64.20;;;;;;5020676;28;20037;-88
2021/08/08 05:59:24;;;;;;;0.00;0.00;;;28.40;63.60;;;;;;5020577;28;20044;-88
2021/08/08 06:01:57;;;;;;;0.00;0.00;;;28.70;62.70;;;;;;5020261;28;20042;-88
2021/08/08 06:04:23;;;;;;;0.00;0.00;;;28.90;60.50;;;;;;5024677;28;20033;-88
2021/08/08 06:06:50;;;;;;;0.00;0.00;;;28.90;61.70;;;;;;5023372;28;20575;-88
2021/08/08 06:09:16;;;;;;;0.00;0.00;;;29.10;61.40;;;;;;5032309;28;20025;-87
2021/08/08 06:11:42;;;;;;;0.00;0.00;;;29.40;60.90;;;;;;5037083;28;20038;-87
2021/08/08 06:14:07;;;;;;;0.00;0.00;;;29.50;59.80;;;;;;5039630;28;20025;-88
2021/08/08 06:16:33;;;;;;;0.00;0.00;;;29.60;60.00;;;;;;5036346;28;20049;-87
2021/08/08 06:18:59;;;;;;;0.00;0.00;;;29.60;59.30;;;;;;5041404;28;20101;-88
2021/08/08 06:21:25;;;;;;;0.00;0.00;;;29.80;59.20;;;;;;5040797;28;20105;-88
2021/08/08 06:23:51;;;;;;;0.00;0.00;;;30.00;58.90;;;;;;5040476;28;20097;-88
2021/08/08 06:26:16;;;;;;;0.00;0.00;;;30.20;58.50;;;;;;5039636;28;20049;-88
2021/08/08 06:28:42;;;;;;;0.00;0.00;;;30.30;58.40;;;;;;5041064;28;20075;-88
2021/08/08 06:31:08;;;;;;;0.00;0.00;;;30.50;57.70;;;;;;5041086;28;20049;-88
2021/08/08 06:33:34;;;;;;;0.00;0.00;;;30.60;57.60;;;;;;5040439;28;20040;-88
2021/08/08 06:35:59;;;;;;;0.00;0.00;;;30.90;57.10;;;;;;5040308;28;20033;-89
2021/08/08 06:38:25;;;;;;;0.00;0.00;;;31.10;56.30;;;;;;5034627;28;20036;-88
2021/08/08 06:40:51;;;;;;;0.00;0.00;;;31.20;56.30;;;;;;5023068;28;20033;-88
2021/08/08 06:43:17;;;;;;;0.00;0.00;;;31.40;56.20;;;;;;5021171;28;20293;-89
2021/08/08 06:45:43;;;;;;;0.00;0.00;;;31.70;55.60;;;;;;5016945;28;20055;-89
2021/08/08 06:48:08;;;;;;;0.00;0.00;;;32.10;55.40;;;;;;5020394;28;20025;-88
2021/08/08 06:50:34;;;;;;;0.00;0.00;;;32.40;54.50;;;;;;5022619;28;20042;-88
2021/08/08 06:53:00;;;;;;;0.00;0.00;;;32.60;54.20;;;;;;5021540;28;20034;-88
2021/08/08 06:55:26;;;;;;;0.00;0.00;;;32.80;53.80;;;;;;5018483;28;20044;-88
2021/08/08 06:57:51;;;;;;;0.00;0.00;;;32.90;53.50;;;;;;5019649;28;20030;-88
2021/08/08 07:00:17;;;;;;;0.00;0.00;;;33.20;53.30;;;;;;5038452;28;20064;-89
2021/08/08 07:02:51;;;;;;;0.00;0.00;;;33.40;52.50;;;;;;5020764;28;20029;-89
2021/08/08 07:05:17;;;;;;;0.00;0.00;;;33.60;51.20;;;;;;5029897;28;20054;-89
2021/08/08 07:07:43;;;;;;;0.00;0.00;;;33.70;52.00;;;;;;5058139;28;20052;-88
2021/08/08 07:10:09;;;;;;;0.00;0.00;;;33.70;51.10;;;;;;5040861;28;20027;-88
2021/08/08 07:12:37;;;;;;;0.00;0.00;;;33.70;51.10;;;;;;5040516;28;20022;-89
2021/08/08 07:15:07;;;;;;;0.00;0.00;;;33.70;50.80;;;;;;5039919;28;20037;-89
2021/08/08 07:17:33;;;;;;;0.03;0.03;;;33.90;51.70;;;;;;5032955;28;20080;-89
2021/08/08 07:19:59;;;;;;;0.00;0.00;;;34.20;50.80;;;;;;5053420;28;20049;-88
2021/08/08 07:22:25;;;;;;;0.00;0.00;;;34.70;50.00;;;;;;5019945;28;20117;-89
2021/08/08 07:24:52;;;;;;;0.00;0.00;;;34.70;49.50;;;;;;5019628;28;20041;-89
2021/08/08 07:27:19;;;;;;;0.00;0.00;;;34.90;49.60;;;;;;5036780;28;20037;-89
2021/08/08 07:29:45;;;;;;;0.10;0.10;;;35.10;48.80;;;;;;5036813;28;20041;-88
2021/08/08 07:32:11;;;;;;;0.00;0.00;;;35.00;48.50;;;;;;5019548;28;20036;-89
2021/08/08 07:34:37;;;;;;;0.00;0.00;;;35.10;48.50;;;;;;5019716;28;20497;-89
2021/08/08 07:37:02;;;;;;;0.00;0.00;;;35.30;48.40;;;;;;5021333;28;20045;-89
2021/08/08 07:39:31;;;;;;;0.03;0.03;;;35.50;48.30;;;;;;5041095;28;20044;-89
2021/08/08 07:41:57;;;;;;;0.00;0.00;;;35.60;47.90;;;;;;5037596;28;20045;-88
2021/08/08 07:44:23;;;;;;;0.10;0.10;;;35.70;47.70;;;;;;5024653;28;20231;-89
2021/08/08 07:46:48;;;;;;;0.05;0.05;;;35.90;47.50;;;;;;5020061;28;20080;-89
2021/08/08 07:49:15;;;;;;;0.08;0.08;;;36.10;47.80;;;;;;5037782;28;20030;-89
2021/08/08 07:51:41;;;;;;;0.00;0.00;;;36.20;46.60;;;;;;5003079;28;20065;-88
2021/08/08 07:54:06;;;;;;;0.03;0.03;;;36.50;46.60;;;;;;5019917;28;20475;-89
2021/08/08 07:56:32;;;;;;;0.10;0.10;;;36.60;46.30;;;;;;5019831;28;20036;-89
2021/08/08 07:58:58;;;;;;;0.08;0.08;;;36.70;45.90;;;;;;5019663;28;20044;-88
2021/08/08 08:01:23;;;;;;;0.03;0.03;;;36.80;45.90;;;;;;5018760;28;20040;-88
2021/08/08 08:03:49;;;;;;;0.10;0.10;;;36.90;45.90;;;;;;5036873;28;20032;-89
2021/08/08 08:06:15;;;;;;;0.00;0.00;;;37.20;46.00;;;;;;5017652;28;20045;-87
2021/08/08 08:08:42;;;;;;;0.00;0.00;;;37.60;45.70;;;;;;5021002;28;20061;-89
2021/08/08 08:11:08;;;;;;;0.10;0.10;;;37.80;45.30;;;;;;5024032;28;20029;-88
2021/08/08 08:13:34;;;;;;;0.10;0.10;;;37.90;44.70;;;;;;5032905;28;20075;-88
2021/08/08 08:16:00;;;;;;;0.10;0.10;;;37.90;44.40;;;;;;5023658;28;20422;-89
2021/08/08 08:18:26;;;;;;;0.00;0.00;;;38.00;44.50;;;;;;5024575;28;20048;-88
2021/08/08 08:20:54;;;;;;;0.10;0.10;;;38.10;44.30;;;;;;5023378;28;20059;-87
2021/08/08 08:23:21;;;;;;;0.10;0.10;;;38.30;43.90;;;;;;5022749;28;20033;-89
2021/08/08 08:25:47;;;;;;;0.10;0.10;;;38.30;43.70;;;;;;5023782;28;20103;-89
2021/08/08 08:28:13;;;;;;;0.00;0.00;;;38.20;43.80;;;;;;5023587;28;20045;-89
2021/08/08 08:30:39;;;;;;;0.00;0.00;;;38.10;43.30;;;;;;5023441;28;20540;-89
2021/08/08 08:33:06;;;;;;;0.00;0.00;;;38.30;43.40;;;;;;5023593;28;20096;-87
2021/08/08 08:35:32;;;;;;;0.10;0.10;;;38.50;43.10;;;;;;5022539;28;20135;-87
2021/08/08 08:37:58;;;;;;;0.10;0.10;;;38.60;43.20;;;;;;5022153;28;20071;-87
2021/08/08 08:40:24;;;;;;;0.10;0.10;;;38.70;43.00;;;;;;5024376;28;20033;-87
2021/08/08 08:42:51;;;;;;;0.00;0.00;;;38.80;42.80;;;;;;5026102;28;20056;-87
2021/08/08 08:45:18;;;;;;;0.00;0.00;;;39.00;43.00;;;;;;5024834;28;20057;-87
2021/08/08 08:47:46;;;;;;;0.10;0.10;;;39.10;43.10;;;;;;5023858;28;20068;-87
2021/08/08 08:50:13;;;;;;;0.00;0.00;;;39.30;43.00;;;;;;5024812;28;20038;-87
2021/08/08 08:52:39;;;;;;;0.00;0.00;;;39.70;42.20;;;;;;5027014;28;20076;-87
2021/08/08 08:55:05;;;;;;;0.03;0.03;;;39.60;41.80;;;;;;5032514;28;20029;-87
2021/08/08 08:57:32;;;;;;;0.10;0.10;;;39.60;42.10;;;;;;5041889;28;20034;-87
2021/08/08 09:00:07;;;;;;;0.10;0.10;;;39.80;41.80;;;;;;5043112;28;20026;-88
2021/08/08 09:02:33;;;;;;;0.10;0.10;;;39.70;41.50;;;;;;5042632;28;20037;-87
2021/08/08 09:05:00;;;;;;;0.10;0.10;;;39.70;41.70;;;;;;5029094;28;20061;-88
2021/08/08 09:07:26;;;;;;;0.10;0.10;;;39.80;41.90;;;;;;5032989;28;20041;-86
2021/08/08 09:09:52;;;;;;;0.10;0.10;;;40.00;41.90;;;;;;5042507;28;20089;-87
2021/08/08 09:12:25;;;;;;;0.10;0.10;;;40.20;41.90;;;;;;5042478;28;20042;-87
2021/08/08 09:15:03;;;;;;;0.10;0.10;;;40.50;41.50;;;;;;5042128;28;20072;-88
2021/08/08 09:17:29;;;;;;;0.10;0.10;;;40.60;40.90;;;;;;5041782;28;20041;-88
2021/08/08 09:20:04;;;;;;;0.10;0.10;;;40.50;40.90;;;;;;5023216;28;20109;-89
2021/08/08 09:22:30;;;;;;;0.10;0.10;;;40.30;40.70;;;;;;5021398;28;20117;-88
2021/08/08 09:24:57;;;;;;;0.10;0.10;;;40.10;41.10;;;;;;5021767;28;20076;-88
2021/08/08 09:27:35;;;;;;;0.10;0.10;;;40.10;41.20;;;;;;5020272;28;20451;-87
2021/08/08 09:30:03;;;;;;;0.10;0.10;;;40.20;40.80;;;;;;5021398;28;20074;-88
2021/08/08 09:32:33;;;;;;;0.10;0.10;;;40.40;41.40;;;;;;5022071;28;20041;-88
2021/08/08 09:35:19;;;;;;;0.10;0.10;;;40.60;40.70;;;;;;5022446;28;20045;-87
2021/08/08 09:38:00;;;;;;;0.10;0.10;;;40.90;40.40;;;;;;5026989;28;20040;-88
2021/08/08 09:40:26;;;;;;;0.10;0.10;;;40.80;39.90;;;;;;5036473;28;20064;-87
2021/08/08 09:42:52;;;;;;;0.10;0.10;;;40.60;40.00;;;;;;5026000;28;20030;-87
2021/08/08 09:45:18;;;;;;;0.10;0.10;;;40.40;40.20;;;;;;5026562;28;20064;-88
2021/08/08 09:47:49;;;;;;;0.10;0.10;;;40.50;40.20;;;;;;5031366;28;20045;-87
2021/08/08 09:50:20;;;;;;;0.10;0.10;;;40.60;40.30;;;;;;5035752;28;20080;-88
2021/08/08 09:52:51;;;;;;;0.10;0.10;;;41.00;40.60;;;;;;5025752;28;20398;-88
2021/08/08 09:55:31;;;;;;;0.10;0.10;;;41.30;39.60;;;;;;5024501;28;20103;-87
2021/08/08 09:57:58;;;;;;;0.10;0.10;;;41.50;39.10;;;;;;5021655;28;20049;-88
2021/08/08 10:00:31;;;;;;;0.10;0.10;;;41.40;39.90;;;;;;5039507;28;20084;-88
2021/08/08 10:02:58;;;;;;;0.10;0.10;;;41.60;39.40;;;;;;5022675;28;20037;-88
2021/08/08 10:05:25;;;;;;;0.10;0.10;;;41.80;39.40;;;;;;5030383;28;20059;-88
2021/08/08 10:07:53;;;;;;;0.08;0.08;;;41.90;39.50;;;;;;5035323;28;20033;-88
2021/08/08 10:10:20;;;;;;;0.10;0.10;;;42.10;39.30;;;;;;5040558;28;20037;-88
2021/08/08 10:13:07;;;;;;;0.10;0.10;;;42.20;39.20;;;;;;5041845;28;20034;-88
2021/08/08 10:15:41;;;;;;;0.10;0.10;;;42.10;38.40;;;;;;5058872;28;20033;-88
2021/08/08 10:18:10;;;;;;;0.10;0.10;;;41.80;38.60;;;;;;5057415;28;20057;-88
2021/08/08 10:20:37;;;;;;;0.10;0.10;;;41.80;39.10;;;;;;5036045;28;20042;-88
2021/08/08 10:23:07;;;;;;;0.20;0.20;;;41.70;38.90;;;;;;5042365;28;20120;-88
2021/08/08 10:25:33;;;;;;;0.10;0.10;;;41.90;38.90;;;;;;5041619;28;20040;-87
2021/08/08 10:28:00;;;;;;;0.10;0.10;;;41.80;38.80;;;;;;5041023;28;20045;-88
2021/08/08 10:30:26;;;;;;;0.10;0.10;;;41.80;38.90;;;;;;5039974;28;20022;-87
2021/08/08 10:32:53;;;;;;;0.10;0.10;;;42.00;39.10;;;;;;5040287;28;20029;-87
2021/08/08 10:35:19;;;;;;;0.10;0.10;;;42.20;38.60;;;;;;5035533;28;20064;-87
2021/08/08 10:37:47;;;;;;;0.10;0.10;;;42.10;38.40;;;;;;5026999;28;20083;-89
2021/08/08 10:40:27;;;;;;;0.10;0.10;;;41.90;38.20;;;;;;5022247;28;20038;-90
2021/08/08 10:42:52;;;;;;;0.10;0.10;;;42.10;38.50;;;;;;5021915;28;20033;-88
2021/08/08 10:45:29;;;;;;;0.10;0.10;;;42.20;38.10;;;;;;5021466;28;20418;-89
2021/08/08 10:48:14;;;;;;;0.10;0.10;;;42.30;38.40;;;;;;5039334;28;20031;-88
2021/08/08 10:50:48;;;;;;;0.10;0.10;;;42.50;38.10;;;;;;5022271;28;20437;-88
2021/08/08 10:53:29;;;;;;;0.10;0.10;;;42.50;37.40;;;;;;5039253;28;20022;-89
2021/08/08 10:56:08;;;;;;;0.10;0.10;;;42.40;38.20;;;;;;5024653;28;20041;-88
2021/08/08 10:58:36;;;;;;;0.10;0.10;;;42.70;38.40;;;;;;5035812;28;20025;-88
2021/08/08 11:01:18;;;;;;;0.10;0.10;;;42.70;38.30;;;;;;5039428;28;20042;-89
2021/08/08 11:03:50;;;;;;;0.10;0.10;;;42.70;38.10;;;;;;5036959;28;20060;-89
2021/08/08 11:06:25;;;;;;;0.10;0.10;;;42.70;38.10;;;;;;5023356;28;20445;-89
2021/08/08 11:08:56;;;;;;;0.10;0.10;;;42.80;37.70;;;;;;5027457;28;20397;-89
2021/08/08 11:11:31;;;;;;;0.10;0.10;;;42.90;37.60;;;;;;5028097;28;20044;-88
2021/08/08 11:14:11;;;;;;;0.10;0.10;;;43.00;37.70;;;;;;5046508;28;20474;-88
2021/08/08 11:16:37;;;;;;;0.10;0.10;;;42.70;37.60;;;;;;5026807;28;20207;-88
2021/08/08 11:19:03;;;;;;;0.10;0.10;;;42.70;38.00;;;;;;5025806;28;20030;-89
2021/08/08 11:21:29;;;;;;;0.10;0.10;;;42.80;38.10;;;;;;5025493;28;20041;-87
2021/08/08 11:24:00;;;;;;;0.10;0.10;;;42.90;37.80;;;;;;5026079;28;20494;-87
2021/08/08 11:26:27;;;;;;;0.10;0.10;;;43.00;38.20;;;;;;5027954;28;20125;-88
2021/08/08 11:29:03;;;;;;;0.10;0.10;;;43.00;38.00;;;;;;5028579;28;20049;-89
2021/08/08 11:31:37;;;;;;;0.10;0.10;;;43.00;37.70;;;;;;5029232;28;20051;-88
2021/08/08 11:34:08;;;;;;;0.10;0.10;;;42.80;38.00;;;;;;5029886;28;20029;-88
2021/08/08 11:36:37;;;;;;;0.10;0.10;;;42.90;37.80;;;;;;5039259;28;20037;-88
2021/08/08 11:39:06;;;;;;;0.10;0.10;;;43.20;37.60;;;;;;5058770;28;20017;-88
2021/08/08 11:41:32;;;;;;;0.10;0.10;;;43.30;37.70;;;;;;5041436;28;20029;-88
2021/08/08 11:44:01;;;;;;;0.10;0.10;;;43.60;37.70;;;;;;5058676;28;20030;-88
2021/08/08 11:46:27;;;;;;;0.10;0.10;;;43.90;37.50;;;;;;5057732;28;20037;-88
2021/08/08 11:48:53;;;;;;;0.10;0.10;;;44.00;37.30;;;;;;5030699;28;20029;-89
2021/08/08 11:51:22;;;;;;;0.10;0.10;;;44.00;37.10;;;;;;5047098;28;20077;-88
2021/08/08 11:53:54;;;;;;;0.17;0.17;;;44.20;37.00;;;;;;5048211;28;20095;-88
2021/08/08 11:56:28;;;;;;;0.10;0.10;;;44.10;36.80;;;;;;5031915;28;20041;-88
2021/08/08 11:58:57;;;;;;;0.10;0.10;;;43.80;36.80;;;;;;5024632;28;20482;-88
2021/08/08 12:01:23;;;;;;;0.17;0.17;;;43.90;36.90;;;;;;5022991;28;20042;-88
2021/08/08 12:03:51;;;;;;;0.10;0.10;;;44.00;36.80;;;;;;5024103;28;20020;-89
2021/08/08 12:06:21;;;;;;;0.20;0.20;;;44.10;36.70;;;;;;5041118;28;20103;-88
2021/08/08 12:08:54;;;;;;;0.10;0.10;;;43.90;36.20;;;;;;5040418;28;20034;-88
2021/08/08 12:11:21;;;;;;;0.10;0.10;;;43.70;36.50;;;;;;5023296;28;20037;-89
2021/08/08 12:14:07;;;;;;;0.10;0.10;;;43.70;36.70;;;;;;5031562;28;20048;-88
2021/08/08 12:16:35;;;;;;;0.17;0.17;;;44.00;36.30;;;;;;5038566;28;20021;-89
2021/08/08 12:19:02;;;;;;;0.10;0.10;;;44.20;37.00;;;;;;5037085;28;20045;-88
2021/08/08 12:21:36;;;;;;;0.10;0.10;;;44.40;36.30;;;;;;5028771;28;20037;-89
2021/08/08 12:24:04;;;;;;;0.10;0.10;;;44.60;36.20;;;;;;5042881;28;20022;-89
2021/08/08 12:26:32;;;;;;;0.17;0.17;;;44.80;36.00;;;;;;5024491;28;20057;-88
2021/08/08 12:29:06;;;;;;;0.10;0.10;;;45.00;35.60;;;;;;5028843;28;20087;-89
2021/08/08 12:31:40;;;;;;;0.10;0.10;;;45.00;35.40;;;;;;5023205;28;20033;-89
2021/08/08 12:34:09;;;;;;;0.10;0.10;;;45.10;35.10;;;;;;5023160;28;20174;-88
2021/08/08 12:36:44;;;;;;;0.20;0.20;;;45.30;35.30;;;;;;5020238;28;20106;-88
2021/08/08 12:39:11;;;;;;;0.20;0.20;;;45.60;35.00;;;;;;5020653;28;20026;-91
2021/08/08 12:41:41;;;;;;;0.10;0.10;;;45.70;35.10;;;;;;5022669;28;20510;-89
2021/08/08 12:44:09;;;;;;;0.10;0.10;;;45.70;35.10;;;;;;5027455;28;20045;-89
2021/08/08 12:46:37;;;;;;;0.10;0.10;;;45.60;35.00;;;;;;5034276;28;20041;-89
2021/08/08 12:49:06;;;;;;;0.10;0.10;;;45.40;35.30;;;;;;5033063;28;20061;-88